createdAt,value
2023-04-17T00:00:36.988Z,99.90
2023-04-17T00:10:38.923Z,99.90
2023-04-17T00:20:42.262Z,99.90
2023-04-17T00:30:44.344Z,99.90
2023-04-17T00:40:47.902Z,99.90
2023-04-17T00:50:50.715Z,99.90
2023-04-17T01:00:54.063Z,99.90
2023-04-17T01:10:56.043Z,99.90
2023-04-17T01:20:59.579Z,99.90
2023-04-17T01:31:03.335Z,99.90
2023-04-17T01:41:05.615Z,99.90
2023-04-17T01:51:08.954Z,99.90
2023-04-17T02:01:10.920Z,99.90
2023-04-17T02:11:14.260Z,99.90
2023-04-17T02:21:16.300Z,99.90
2023-04-17T02:31:19.642Z,99.90
2023-04-17T02:41:21.595Z,99.90
2023-04-17T02:51:24.994Z,99.90
2023-04-17T03:01:27.023Z,99.90
2023-04-17T03:11:30.496Z,99.90
2023-04-17T03:21:32.556Z,99.90
2023-04-17T03:31:35.938Z,99.90
2023-04-17T03:41:37.907Z,99.90
2023-04-17T03:51:41.283Z,99.90
2023-04-17T04:01:45.338Z,99.90
2023-04-17T04:11:49.970Z,99.90
2023-04-17T04:21:52.101Z,99.90
2023-04-17T04:31:55.495Z,99.90
2023-04-17T04:41:58.506Z,99.90
2023-04-17T04:52:01.812Z,99.90
2023-04-17T05:02:04.000Z,99.90
2023-04-17T05:12:07.954Z,99.90
2023-04-17T05:22:09.925Z,99.90
2023-04-17T05:32:13.270Z,99.90
2023-04-17T05:42:15.196Z,99.90
2023-04-17T05:52:18.652Z,99.90
2023-04-17T06:02:20.667Z,99.90
2023-04-17T06:12:24.549Z,99.90
2023-04-17T06:22:26.466Z,99.90
2023-04-17T06:32:30.016Z,99.90
2023-04-17T06:42:31.951Z,99.90
2023-04-17T06:52:35.299Z,99.90
2023-04-17T07:02:37.326Z,99.90
2023-04-17T07:12:40.765Z,99.90
2023-04-17T07:22:42.791Z,99.90
2023-04-17T07:32:46.581Z,99.90
2023-04-17T07:42:48.589Z,99.90
2023-04-17T07:52:51.943Z,99.90
2023-04-17T08:02:54.071Z,99.90
2023-04-17T08:12:57.754Z,99.90
2023-04-17T08:22:59.825Z,99.90
2023-04-17T08:33:03.351Z,99.90
2023-04-17T08:43:05.535Z,99.90
2023-04-17T08:53:09.874Z,99.90
2023-04-17T09:03:13.196Z,99.90
2023-04-17T09:13:18.531Z,99.90
2023-04-17T09:23:20.975Z,99.90
2023-04-17T09:33:24.317Z,98.70
2023-04-17T09:43:40.370Z,97.50
2023-04-17T09:53:43.788Z,98.10
2023-04-17T10:03:46.034Z,97.80
2023-04-17T10:13:55.502Z,93.70
2023-04-17T10:23:57.477Z,94.20
2023-04-17T10:34:00.840Z,93.70
2023-04-17T10:44:02.778Z,94.80
2023-04-17T10:54:06.778Z,94.00
2023-04-17T11:04:09.311Z,92.60
2023-04-17T11:14:14.817Z,94.00
2023-04-17T11:24:23.309Z,93.90
2023-04-17T11:34:27.334Z,94.90
2023-04-17T11:44:29.937Z,96.10
2023-04-17T11:54:36.327Z,94.90
2023-04-17T12:04:39.715Z,95.90
2023-04-17T12:14:44.652Z,95.70
2023-04-17T12:24:46.593Z,96.90
2023-04-17T12:34:49.924Z,97.30
2023-04-17T12:44:51.961Z,97.00
2023-04-17T12:54:55.323Z,97.40
2023-04-17T13:04:57.318Z,97.70
2023-04-17T13:15:00.664Z,97.00
2023-04-17T13:25:03.083Z,97.10
2023-04-17T13:35:07.804Z,98.00
2023-04-17T13:45:10.534Z,97.80
2023-04-17T13:55:13.882Z,96.70
2023-04-17T14:05:16.355Z,96.20
2023-04-17T14:15:19.813Z,96.50
2023-04-17T14:25:21.838Z,95.90
2023-04-17T14:35:26.868Z,96.80
2023-04-17T14:45:28.996Z,95.50
2023-04-17T14:55:32.321Z,95.80
2023-04-17T15:05:34.338Z,96.30
2023-04-17T15:15:37.939Z,97.10
2023-04-17T15:25:40.169Z,96.70
2023-04-17T15:35:43.753Z,97.60
2023-04-17T15:45:47.629Z,97.90
2023-04-17T15:55:52.663Z,99.20
2023-04-17T16:05:54.674Z,99.90
2023-04-17T16:16:00.625Z,99.90
2023-04-17T16:26:02.734Z,99.90
2023-04-17T16:36:06.491Z,99.90
2023-04-17T16:46:21.032Z,99.90
2023-04-17T16:56:28.092Z,99.90
2023-04-17T17:06:30.022Z,99.90
2023-04-17T17:16:33.379Z,99.90
2023-04-17T17:26:35.371Z,99.90
2023-04-17T17:36:38.679Z,99.90
2023-04-17T17:46:40.638Z,99.90
2023-04-17T17:56:44.012Z,99.90
2023-04-17T18:06:46.960Z,99.90
2023-04-17T20:58:14.589Z,99.90
2023-04-17T21:08:16.548Z,99.90
2023-04-17T21:18:19.887Z,99.90
2023-04-17T21:28:21.854Z,99.90
2023-04-17T21:38:25.159Z,99.90
2023-04-17T21:48:27.174Z,99.90
2023-04-17T21:58:30.465Z,99.90
2023-04-17T22:08:40.983Z,99.90
2023-04-17T22:18:44.320Z,99.90
2023-04-17T22:28:46.260Z,99.90
2023-04-17T22:38:49.582Z,99.90
2023-04-17T22:48:51.563Z,99.90
2023-04-17T22:58:54.873Z,99.90
2023-04-17T23:08:56.776Z,99.90
2023-04-17T23:19:00.084Z,99.90
2023-04-17T23:29:05.044Z,99.90
2023-04-17T23:39:11.172Z,99.90
2023-04-17T23:49:13.062Z,99.90
2023-04-17T23:59:16.340Z,99.90
